Time;durP1;ratioP1;P1;durP2;ratioP2;P2;SDS_P1;SDS_P2;PMS_P1;PMS_P2;Temp;Humidity;BMP_temperature;BMP_pressure;BME280_temperature;BME280_humidity;BME280_pressure;Samples;Min_cycle;Max_cycle;Signal;HPM_P1;HPM_P2
2024/02/17 00:02:25;;;;;;;36.40;17.77;;;7.80;99.90;;;;;;5050894;28;20043;-74
2024/02/17 00:04:51;;;;;;;29.02;16.20;;;7.80;99.90;;;;;;5063428;28;20508;-74
2024/02/17 00:07:17;;;;;;;28.58;16.40;;;7.80;99.90;;;;;;5068383;28;20055;-74
2024/02/17 00:09:43;;;;;;;33.08;17.08;;;7.80;99.90;;;;;;5044973;28;20048;-74
2024/02/17 00:12:09;;;;;;;36.42;17.35;;;7.90;99.90;;;;;;5067221;28;20057;-75
2024/02/17 00:14:36;;;;;;;22.13;14.70;;;7.90;99.90;;;;;;5066041;28;20052;-74
2024/02/17 00:17:05;;;;;;;32.05;17.83;;;7.90;99.90;;;;;;5042050;28;20490;-74
2024/02/17 00:19:31;;;;;;;24.98;14.93;;;7.90;99.90;;;;;;5050955;28;20105;-74
2024/02/17 00:22:03;;;;;;;29.42;16.92;;;8.00;99.90;;;;;;5028471;28;20076;-74
2024/02/17 00:24:29;;;;;;;40.80;18.17;;;8.00;99.90;;;;;;5053500;28;20564;-75
2024/02/17 00:26:54;;;;;;;35.13;17.33;;;8.00;99.90;;;;;;5053478;28;20052;-74
2024/02/17 00:29:20;;;;;;;31.05;16.63;;;8.00;99.90;;;;;;5038848;28;20048;-75
2024/02/17 00:31:46;;;;;;;31.65;17.38;;;8.00;99.90;;;;;;5044523;28;20105;-75
2024/02/17 00:34:13;;;;;;;28.20;16.48;;;8.10;99.90;;;;;;5033351;28;20040;-75
2024/02/17 00:36:39;;;;;;;34.67;17.52;;;8.10;99.90;;;;;;5054608;28;20223;-74
2024/02/17 00:39:05;;;;;;;33.90;18.23;;;8.10;99.90;;;;;;5047132;28;20123;-74
2024/02/17 00:41:31;;;;;;;32.92;17.70;;;8.10;99.90;;;;;;5027189;28;20056;-74
2024/02/17 00:43:57;;;;;;;34.58;18.60;;;8.10;99.90;;;;;;5026420;28;20033;-75
2024/02/17 00:46:23;;;;;;;27.02;16.40;;;8.10;99.90;;;;;;5029003;28;20043;-74
2024/02/17 00:48:49;;;;;;;31.15;18.90;;;8.20;99.90;;;;;;5061508;28;20411;-74
2024/02/17 00:51:15;;;;;;;38.75;19.50;;;8.20;99.90;;;;;;5059990;28;20051;-74
2024/02/17 00:53:45;;;;;;;34.35;19.00;;;8.20;99.90;;;;;;5050520;28;20051;-74
2024/02/17 00:56:14;;;;;;;35.75;19.40;;;8.20;99.90;;;;;;5066034;28;20870;-73
2024/02/17 00:58:40;;;;;;;36.00;19.60;;;8.20;99.90;;;;;;5064671;28;20036;-74
2024/02/17 01:01:07;;;;;;;35.72;19.80;;;8.30;99.90;;;;;;5044672;28;20048;-74
2024/02/17 01:03:34;;;;;;;34.75;19.05;;;8.20;99.90;;;;;;5050561;28;20059;-75
2024/02/17 01:06:00;;;;;;;38.08;19.65;;;8.30;99.90;;;;;;5047183;28;20048;-74
2024/02/17 01:08:25;;;;;;;36.22;19.73;;;8.30;99.90;;;;;;5067414;28;20047;-74
2024/02/17 01:10:51;;;;;;;36.13;20.27;;;8.30;99.90;;;;;;5045554;28;20928;-74
2024/02/17 01:13:17;;;;;;;30.65;18.90;;;8.30;99.90;;;;;;5042523;28;20048;-74
2024/02/17 01:15:43;;;;;;;36.97;21.63;;;8.40;99.90;;;;;;5061096;28;20048;-74
2024/02/17 01:18:09;;;;;;;32.10;19.55;;;8.30;99.90;;;;;;5049703;28;20516;-73
2024/02/17 01:20:34;;;;;;;27.88;18.20;;;8.40;99.90;;;;;;5044720;28;20063;-74
2024/02/17 01:23:00;;;;;;;39.63;21.05;;;8.40;99.90;;;;;;5064826;28;20087;-74
2024/02/17 01:25:26;;;;;;;34.42;20.73;;;8.40;99.90;;;;;;5045509;28;20044;-74
2024/02/17 01:27:52;;;;;;;34.25;20.45;;;8.40;99.90;;;;;;5049881;28;20047;-74
2024/02/17 01:30:18;;;;;;;41.90;21.73;;;8.40;99.90;;;;;;5052439;28;20118;-74
2024/02/17 01:32:44;;;;;;;35.20;20.52;;;8.40;99.90;;;;;;5046560;28;20177;-74
2024/02/17 01:35:10;;;;;;;38.53;21.83;;;8.40;99.90;;;;;;5061886;28;20067;-75
2024/02/17 01:37:36;;;;;;;38.03;20.58;;;8.40;99.90;;;;;;5065076;28;20574;-74
2024/02/17 01:40:02;;;;;;;41.05;22.67;;;8.50;99.90;;;;;;5052286;28;20044;-74
2024/02/17 01:42:28;;;;;;;36.05;21.65;;;8.50;99.90;;;;;;5048268;28;20044;-74
2024/02/17 01:44:53;;;;;;;39.45;22.58;;;8.50;99.90;;;;;;5036854;28;20061;-74
2024/02/17 01:47:20;;;;;;;39.63;21.85;;;8.50;99.90;;;;;;5068233;28;20395;-74
2024/02/17 01:49:47;;;;;;;32.58;21.33;;;8.50;99.90;;;;;;5057495;28;20163;-74
2024/02/17 01:52:14;;;;;;;40.35;22.40;;;8.50;99.90;;;;;;5063279;28;20040;-74
2024/02/17 01:54:40;;;;;;;35.95;21.38;;;8.50;99.90;;;;;;5050336;28;20252;-74
2024/02/17 01:57:06;;;;;;;41.17;22.60;;;8.50;99.90;;;;;;5033602;28;20032;-74
2024/02/17 01:59:33;;;;;;;32.08;21.42;;;8.50;99.90;;;;;;5049746;28;20567;-74
2024/02/17 02:02:01;;;;;;;34.92;21.95;;;8.60;99.90;;;;;;5060151;28;20520;-74
2024/02/17 02:04:27;;;;;;;37.63;22.20;;;8.60;99.90;;;;;;5059371;28;20044;-74
2024/02/17 02:06:52;;;;;;;34.58;21.95;;;8.60;99.90;;;;;;5053352;28;20043;-74
2024/02/17 02:09:23;;;;;;;39.75;21.95;;;8.60;99.90;;;;;;5068106;28;20437;-74
2024/02/17 02:11:50;;;;;;;43.28;24.25;;;8.60;99.90;;;;;;5073482;28;20044;-74
2024/02/17 02:14:18;;;;;;;39.83;24.15;;;8.60;99.90;;;;;;5050779;28;20036;-74
2024/02/17 02:16:45;;;;;;;38.42;21.67;;;8.60;99.90;;;;;;5055557;28;20046;-74
2024/02/17 02:19:14;;;;;;;35.25;22.15;;;8.60;99.90;;;;;;5062849;28;20051;-74
2024/02/17 02:21:41;;;;;;;34.10;21.77;;;8.60;99.90;;;;;;5040265;28;20125;-74
2024/02/17 02:24:07;;;;;;;35.00;22.70;;;8.60;99.90;;;;;;5056409;28;20363;-74
2024/02/17 02:26:33;;;;;;;37.83;24.30;;;8.70;99.90;;;;;;5043894;28;20404;-74
2024/02/17 02:28:59;;;;;;;36.22;24.23;;;8.70;99.90;;;;;;5066146;28;20039;-74
2024/02/17 02:31:25;;;;;;;42.50;24.45;;;8.70;99.90;;;;;;5064466;28;20519;-74
2024/02/17 02:33:52;;;;;;;30.58;21.23;;;8.70;99.90;;;;;;5062941;28;20492;-74
2024/02/17 02:36:20;;;;;;;31.10;21.38;;;8.70;99.90;;;;;;5063713;28;20047;-74
2024/02/17 02:38:47;;;;;;;32.50;21.55;;;8.70;99.90;;;;;;5060504;28;20048;-74
2024/02/17 02:41:13;;;;;;;33.60;20.98;;;8.70;99.90;;;;;;5063482;28;20454;-74
2024/02/17 02:43:39;;;;;;;32.83;21.67;;;8.80;99.90;;;;;;5047136;28;20581;-74
2024/02/17 02:46:06;;;;;;;31.25;20.58;;;8.80;99.90;;;;;;5062593;28;20047;-74
2024/02/17 02:48:34;;;;;;;32.55;22.48;;;8.80;99.90;;;;;;5065608;28;20051;-74
2024/02/17 02:51:00;;;;;;;32.50;22.55;;;8.80;99.90;;;;;;5062678;28;20123;-74
2024/02/17 02:53:26;;;;;;;34.28;22.17;;;8.80;99.90;;;;;;5061076;28;20135;-74
2024/02/17 02:55:52;;;;;;;32.53;21.08;;;8.80;99.90;;;;;;5046975;28;20052;-74
2024/02/17 02:58:18;;;;;;;31.25;21.25;;;8.80;99.90;;;;;;5062619;28;20086;-74
2024/02/17 03:00:46;;;;;;;31.70;20.75;;;8.80;99.90;;;;;;5061139;28;20572;-74
2024/02/17 03:03:12;;;;;;;31.30;19.80;;;8.80;99.90;;;;;;5064675;28;20060;-74
2024/02/17 03:05:38;;;;;;;29.90;21.27;;;8.80;99.90;;;;;;5065893;28;20123;-75
2024/02/17 03:08:04;;;;;;;34.80;21.50;;;8.80;99.90;;;;;;5046449;28;20058;-74
2024/02/17 03:10:30;;;;;;;27.80;20.35;;;8.80;99.90;;;;;;5064368;28;20149;-74
2024/02/17 03:12:56;;;;;;;36.05;22.00;;;8.80;99.90;;;;;;5061830;28;20131;-74
2024/02/17 03:15:22;;;;;;;33.88;20.05;;;8.80;99.90;;;;;;5063713;28;20039;-74
2024/02/17 03:17:51;;;;;;;30.58;20.63;;;8.80;99.90;;;;;;5046001;28;20048;-74
2024/02/17 03:20:17;;;;;;;33.97;21.77;;;8.80;99.90;;;;;;5059927;28;20036;-74
2024/02/17 03:22:43;;;;;;;30.50;19.02;;;8.80;99.90;;;;;;5044026;28;20446;-74
2024/02/17 03:25:09;;;;;;;30.65;20.75;;;8.80;99.90;;;;;;5040489;28;20039;-75
2024/02/17 03:27:34;;;;;;;33.35;20.45;;;8.70;99.90;;;;;;5040046;28;20054;-74
2024/02/17 03:30:04;;;;;;;28.38;19.70;;;8.70;99.90;;;;;;5057233;28;20143;-74
2024/02/17 03:32:32;;;;;;;26.30;18.63;;;8.70;99.90;;;;;;5043927;28;20056;-73
2024/02/17 03:34:58;;;;;;;27.70;18.73;;;8.70;99.90;;;;;;5056630;28;20091;-75
2024/02/17 03:37:25;;;;;;;32.90;19.88;;;8.70;99.90;;;;;;5058858;28;20039;-73
2024/02/17 03:39:51;;;;;;;27.60;19.92;;;8.70;99.90;;;;;;5056386;28;20056;-74
2024/02/17 03:42:17;;;;;;;33.45;19.42;;;8.70;99.90;;;;;;5055542;28;20044;-74
2024/02/17 03:44:43;;;;;;;32.75;20.58;;;8.70;99.90;;;;;;5034739;28;20047;-74
2024/02/17 03:47:11;;;;;;;32.20;21.30;;;8.70;99.90;;;;;;5056970;28;20043;-74
2024/02/17 03:49:37;;;;;;;29.42;20.05;;;8.70;99.90;;;;;;5059270;28;20072;-74
2024/02/17 03:52:03;;;;;;;34.17;18.65;;;8.70;99.90;;;;;;5040732;28;20102;-74
2024/02/17 03:54:29;;;;;;;26.63;18.63;;;8.70;99.90;;;;;;5056230;28;20054;-74
2024/02/17 03:56:55;;;;;;;27.30;18.60;;;8.70;99.90;;;;;;5053491;28;20044;-74
2024/02/17 03:59:21;;;;;;;26.40;18.50;;;8.70;99.90;;;;;;5078355;28;20075;-75
2024/02/17 04:01:47;;;;;;;27.02;18.08;;;8.60;99.90;;;;;;5058300;28;20040;-74
2024/02/17 04:04:12;;;;;;;25.10;18.45;;;8.60;99.90;;;;;;5054007;28;20036;-74
2024/02/17 04:06:38;;;;;;;35.20;19.27;;;8.60;99.90;;;;;;5056323;28;20040;-74
2024/02/17 04:09:06;;;;;;;28.50;18.23;;;8.60;99.90;;;;;;5068438;28;20040;-74
2024/02/17 04:11:32;;;;;;;25.83;18.02;;;8.60;99.90;;;;;;5061279;28;20109;-73
2024/02/17 04:13:58;;;;;;;29.55;19.23;;;8.60;99.90;;;;;;5063306;28;20450;-74
2024/02/17 04:16:24;;;;;;;26.73;18.65;;;8.60;99.90;;;;;;5064774;28;20051;-74
2024/02/17 04:18:49;;;;;;;24.35;17.98;;;8.60;99.90;;;;;;5047075;28;20062;-74
2024/02/17 04:21:15;;;;;;;28.67;18.00;;;8.60;99.90;;;;;;5047175;28;20040;-74
2024/02/17 04:23:43;;;;;;;25.02;17.15;;;8.50;99.90;;;;;;5066339;28;20032;-75
2024/02/17 04:26:09;;;;;;;23.00;16.50;;;8.50;99.90;;;;;;5046335;28;20144;-75
2024/02/17 04:28:36;;;;;;;24.02;17.60;;;8.50;99.90;;;;;;5062410;28;20052;-74
2024/02/17 04:31:06;;;;;;;23.45;17.55;;;8.40;99.90;;;;;;5066113;28;20047;-75
2024/02/17 04:33:32;;;;;;;21.85;16.08;;;8.50;99.90;;;;;;5070346;28;20479;-75
2024/02/17 04:35:57;;;;;;;31.08;18.90;;;8.40;99.90;;;;;;5060104;28;20148;-75
2024/02/17 04:38:23;;;;;;;28.55;17.80;;;8.40;99.90;;;;;;5070056;28;20101;-75
2024/02/17 04:40:49;;;;;;;22.92;16.48;;;8.40;99.90;;;;;;5057126;28;20036;-74
2024/02/17 04:43:15;;;;;;;21.95;16.23;;;8.40;99.90;;;;;;5063494;28;20036;-75
2024/02/17 04:45:41;;;;;;;25.20;15.45;;;8.30;99.90;;;;;;5053664;28;20044;-74
2024/02/17 04:48:07;;;;;;;23.10;14.77;;;8.30;99.90;;;;;;5047437;28;20036;-75
2024/02/17 04:50:33;;;;;;;22.48;14.38;;;8.30;99.90;;;;;;5066359;28;20509;-75
2024/02/17 04:52:58;;;;;;;18.95;13.70;;;8.30;99.90;;;;;;5049172;28;20319;-75
2024/02/17 04:55:26;;;;;;;17.08;12.73;;;8.30;99.90;;;;;;5047879;28;20047;-75
2024/02/17 04:57:52;;;;;;;18.75;13.18;;;8.30;99.90;;;;;;5050641;28;20301;-75
2024/02/17 05:00:20;;;;;;;16.45;12.70;;;8.20;99.90;;;;;;5049002;28;20476;-75
2024/02/17 05:02:46;;;;;;;20.13;13.65;;;8.20;99.90;;;;;;5058729;28;20056;-75
2024/02/17 05:05:16;;;;;;;21.00;12.77;;;8.20;99.90;;;;;;5042666;28;20037;-75
2024/02/17 05:07:43;;;;;;;16.27;12.00;;;8.10;99.90;;;;;;5052062;28;20041;-75
2024/02/17 05:10:09;;;;;;;18.67;12.48;;;8.20;99.90;;;;;;5037379;28;20041;-75
2024/02/17 05:12:35;;;;;;;17.25;12.05;;;8.10;99.90;;;;;;5035729;28;20037;-75
2024/02/17 05:15:04;;;;;;;16.27;12.15;;;8.10;99.90;;;;;;5042482;28;20051;-74
2024/02/17 05:17:30;;;;;;;15.88;11.45;;;8.10;99.90;;;;;;5068279;28;20124;-74
2024/02/17 05:19:56;;;;;;;16.60;11.65;;;8.10;99.90;;;;;;5047225;28;20503;-75
2024/02/17 05:22:25;;;;;;;18.80;11.57;;;8.10;99.90;;;;;;5057732;28;20544;-74
2024/02/17 05:24:51;;;;;;;17.80;11.75;;;8.00;99.90;;;;;;5044300;28;20093;-74
2024/02/17 05:27:17;;;;;;;14.38;11.07;;;8.00;99.90;;;;;;5038841;28;20810;-74
2024/02/17 05:29:43;;;;;;;16.45;11.63;;;8.10;99.90;;;;;;5043728;28;20044;-75
2024/02/17 05:32:09;;;;;;;17.08;12.25;;;8.00;99.90;;;;;;5056535;28;20044;-74
2024/02/17 05:34:36;;;;;;;15.07;11.68;;;8.00;99.90;;;;;;5061596;28;20087;-74
2024/02/17 05:37:04;;;;;;;17.88;12.55;;;8.00;99.90;;;;;;5055608;28;20545;-75
2024/02/17 05:39:33;;;;;;;16.92;11.95;;;8.00;99.90;;;;;;5059270;28;20126;-75
2024/02/17 05:42:00;;;;;;;18.20;11.95;;;8.00;99.90;;;;;;5047420;28;20054;-74
2024/02/17 05:44:26;;;;;;;19.20;12.48;;;8.00;99.90;;;;;;5062930;28;20052;-75
2024/02/17 05:46:51;;;;;;;16.92;12.43;;;8.00;99.90;;;;;;5045752;28;20079;-74
2024/02/17 05:49:21;;;;;;;20.17;12.35;;;8.00;99.90;;;;;;5053409;28;20063;-75
2024/02/17 05:51:51;;;;;;;19.50;12.15;;;8.00;99.90;;;;;;5048602;28;20228;-75
2024/02/17 05:54:20;;;;;;;17.57;12.27;;;8.00;99.90;;;;;;5068389;28;20040;-75
2024/02/17 05:56:46;;;;;;;20.38;11.95;;;8.00;99.90;;;;;;5046202;28;20336;-75
2024/02/17 05:59:13;;;;;;;20.00;12.95;;;8.00;99.90;;;;;;5071072;28;20074;-75
2024/02/17 06:01:40;;;;;;;16.27;12.40;;;8.00;99.90;;;;;;5069442;28;20135;-75
2024/02/17 06:04:06;;;;;;;15.93;11.02;;;8.00;99.90;;;;;;5050612;28;20132;-75
2024/02/17 06:06:34;;;;;;;18.67;12.13;;;8.00;99.90;;;;;;5048390;28;20071;-74
2024/02/17 06:09:00;;;;;;;18.23;11.13;;;8.00;99.90;;;;;;5069218;28;20071;-75
2024/02/17 06:11:26;;;;;;;14.05;10.98;;;8.00;99.90;;;;;;5065394;28;20049;-75
2024/02/17 06:13:52;;;;;;;18.27;11.02;;;8.00;99.90;;;;;;5055906;28;20114;-75
2024/02/17 06:16:18;;;;;;;17.33;11.07;;;8.00;99.90;;;;;;5049745;28;20412;-75
2024/02/17 06:21:29;;;;;;;12.80;7.35;;;8.00;99.90;;;;;;5065901;28;20055;-74
2024/02/17 06:23:57;;;;;;;8.40;6.30;;;7.90;99.90;;;;;;5058241;28;20051;-74
2024/02/17 06:26:26;;;;;;;8.90;5.72;;;7.90;99.90;;;;;;5064606;28;20148;-75
2024/02/17 06:28:56;;;;;;;7.38;5.00;;;7.90;99.90;;;;;;5070033;28;20044;-75
2024/02/17 06:31:23;;;;;;;9.48;4.82;;;7.90;99.90;;;;;;5058468;28;20036;-75
2024/02/17 06:33:49;;;;;;;7.57;4.25;;;7.80;99.90;;;;;;5064193;28;20283;-74
2024/02/17 06:36:15;;;;;;;9.00;5.45;;;7.80;99.90;;;;;;5047567;28;20048;-74
2024/02/17 06:38:42;;;;;;;8.77;4.53;;;7.80;99.90;;;;;;5073272;28;20044;-74
2024/02/17 06:41:10;;;;;;;11.48;5.05;;;7.80;99.90;;;;;;5063085;28;20127;-75
2024/02/17 06:43:37;;;;;;;6.72;4.20;;;7.80;99.90;;;;;;5079683;28;20522;-74
2024/02/17 06:46:04;;;;;;;8.32;4.68;;;7.80;99.90;;;;;;5048697;28;20321;-75
2024/02/17 06:48:30;;;;;;;7.63;4.30;;;7.80;99.90;;;;;;5050135;28;20048;-74
2024/02/17 06:50:55;;;;;;;9.82;4.63;;;7.80;99.90;;;;;;5046640;28;20504;-75
2024/02/17 06:53:21;;;;;;;5.00;4.25;;;7.80;99.90;;;;;;5048638;28;20069;-75
2024/02/17 06:55:47;;;;;;;6.28;4.03;;;7.80;99.90;;;;;;5051618;28;20049;-75
2024/02/17 06:58:14;;;;;;;10.07;4.40;;;7.80;99.90;;;;;;5068415;28;20465;-75
2024/02/17 07:00:40;;;;;;;7.47;4.47;;;7.70;99.90;;;;;;5061606;28;20055;-75
2024/02/17 07:03:07;;;;;;;10.70;4.15;;;7.70;99.90;;;;;;5056142;28;20056;-75
2024/02/17 07:05:33;;;;;;;5.50;3.13;;;7.80;99.90;;;;;;5070025;28;20044;-74
2024/02/17 07:08:00;;;;;;;5.05;3.05;;;7.70;99.90;;;;;;5057790;28;20047;-74
2024/02/17 07:10:26;;;;;;;6.55;3.58;;;7.70;99.90;;;;;;5050982;28;20044;-74
2024/02/17 07:12:51;;;;;;;5.72;2.90;;;7.70;99.90;;;;;;5050579;28;20047;-74
2024/02/17 07:15:17;;;;;;;7.85;3.22;;;7.70;99.90;;;;;;5067482;28;20043;-75
2024/02/17 07:17:43;;;;;;;4.63;2.88;;;7.70;99.90;;;;;;5067307;28;20044;-74
2024/02/17 07:20:10;;;;;;;4.93;2.85;;;7.70;99.90;;;;;;5061344;28;20041;-75
2024/02/17 07:22:36;;;;;;;5.13;3.03;;;7.70;99.90;;;;;;5064627;28;20059;-75
2024/02/17 07:25:03;;;;;;;6.75;3.20;;;7.70;99.90;;;;;;5051590;28;20047;-75
2024/02/17 07:27:28;;;;;;;10.82;4.00;;;7.70;99.90;;;;;;5051979;28;20098;-74
2024/02/17 07:29:54;;;;;;;7.90;5.20;;;7.70;99.90;;;;;;5048575;28;20145;-74
2024/02/17 07:32:24;;;;;;;6.60;4.70;;;7.70;99.90;;;;;;5060392;28;20047;-74
2024/02/17 07:34:53;;;;;;;8.93;3.95;;;7.70;99.90;;;;;;5065358;28;20880;-74
2024/02/17 07:37:19;;;;;;;5.22;3.30;;;7.70;99.90;;;;;;5046318;28;20236;-74
2024/02/17 07:39:46;;;;;;;7.13;3.78;;;7.70;99.90;;;;;;5067065;28;20085;-74
2024/02/17 07:42:12;;;;;;;5.50;3.45;;;7.60;99.90;;;;;;5065157;28;20051;-73
2024/02/17 07:44:40;;;;;;;7.35;3.58;;;7.70;99.90;;;;;;5050614;28;20044;-73
2024/02/17 07:47:06;;;;;;;6.22;3.70;;;7.60;99.90;;;;;;5054668;28;20119;-73
2024/02/17 07:49:32;;;;;;;12.88;3.88;;;7.70;99.90;;;;;;5060992;28;20123;-73
2024/02/17 07:51:58;;;;;;;6.85;3.35;;;7.60;99.90;;;;;;5064334;28;20051;-73
2024/02/17 07:54:24;;;;;;;8.77;3.60;;;7.70;99.90;;;;;;5054303;28;20044;-73
2024/02/17 07:56:50;;;;;;;7.65;3.50;;;7.70;99.90;;;;;;5050351;28;20100;-73
2024/02/17 07:59:16;;;;;;;6.50;3.55;;;7.60;99.90;;;;;;5055021;28;20111;-74
2024/02/17 08:01:42;;;;;;;7.82;3.78;;;7.70;99.90;;;;;;5058827;28;20496;-74
2024/02/17 08:04:08;;;;;;;4.88;3.05;;;7.70;99.90;;;;;;5067627;28;20039;-73
2024/02/17 08:06:34;;;;;;;7.25;3.38;;;7.70;99.90;;;;;;5059073;28;20298;-73
2024/02/17 08:08:59;;;;;;;7.75;3.38;;;7.70;99.90;;;;;;5063149;28;20420;-73
2024/02/17 08:11:25;;;;;;;5.78;3.60;;;7.60;99.90;;;;;;5066707;28;20539;-73
2024/02/17 08:13:51;;;;;;;6.95;3.20;;;7.70;99.90;;;;;;5045843;28;20040;-73
2024/02/17 08:16:17;;;;;;;5.85;3.33;;;7.60;99.90;;;;;;5048158;28;20048;-73
2024/02/17 08:18:43;;;;;;;6.47;3.15;;;7.70;99.90;;;;;;5060207;28;20108;-73
2024/02/17 08:21:09;;;;;;;7.25;3.45;;;7.70;99.90;;;;;;5068353;28;20056;-73
2024/02/17 08:23:35;;;;;;;6.90;3.38;;;7.70;99.90;;;;;;5050258;28;20597;-73
2024/02/17 08:26:02;;;;;;;6.22;3.20;;;7.70;99.90;;;;;;5047302;28;20407;-73
2024/02/17 08:28:28;;;;;;;7.03;3.40;;;7.70;99.90;;;;;;5066942;28;20040;-73
2024/02/17 08:30:54;;;;;;;7.65;3.72;;;7.70;99.90;;;;;;5056355;28;20109;-73
2024/02/17 08:33:19;;;;;;;8.15;3.30;;;7.70;99.90;;;;;;5062412;28;20508;-73
2024/02/17 08:35:45;;;;;;;6.82;2.90;;;7.70;99.90;;;;;;5041035;28;20044;-73
2024/02/17 08:38:11;;;;;;;8.18;3.78;;;7.70;99.90;;;;;;5052679;28;20503;-73
2024/02/17 08:40:38;;;;;;;6.75;2.60;;;7.70;99.90;;;;;;5060991;28;20079;-73
2024/02/17 08:43:07;;;;;;;6.15;2.97;;;7.70;99.90;;;;;;5043867;28;20040;-72
2024/02/17 08:45:33;;;;;;;5.37;2.90;;;7.80;99.90;;;;;;5065829;28;20028;-73
2024/02/17 08:47:59;;;;;;;6.75;3.38;;;7.70;99.90;;;;;;5046764;28;20051;-73
2024/02/17 08:50:25;;;;;;;6.60;2.47;;;7.70;99.90;;;;;;5048015;28;20047;-73
2024/02/17 08:52:50;;;;;;;5.70;2.92;;;7.80;99.90;;;;;;5049625;28;20397;-73
2024/02/17 08:55:16;;;;;;;6.38;3.25;;;7.80;99.90;;;;;;5049367;28;20040;-73
2024/02/17 08:57:42;;;;;;;6.78;3.05;;;7.80;99.90;;;;;;5047715;28;20040;-74
2024/02/17 09:00:08;;;;;;;9.88;3.63;;;7.80;99.90;;;;;;5066309;28;20036;-74
2024/02/17 09:02:34;;;;;;;9.55;3.50;;;7.80;99.90;;;;;;5064744;28;20084;-73
2024/02/17 09:05:03;;;;;;;6.30;3.20;;;7.80;99.90;;;;;;5078881;28;20124;-73
2024/02/17 09:07:32;;;;;;;7.93;2.75;;;7.80;99.90;;;;;;5057647;28;20064;-73
2024/02/17 09:09:58;;;;;;;6.53;2.73;;;7.80;99.90;;;;;;5061564;28;20083;-73
2024/02/17 09:12:24;;;;;;;8.02;3.03;;;7.80;99.90;;;;;;5065302;28;20798;-74
2024/02/17 09:14:50;;;;;;;5.38;2.72;;;7.80;99.90;;;;;;5045992;28;20043;-74
2024/02/17 09:17:16;;;;;;;9.98;3.00;;;7.90;99.90;;;;;;5048463;28;20046;-74
2024/02/17 09:19:42;;;;;;;8.25;2.53;;;7.90;99.90;;;;;;5061035;28;20059;-74
2024/02/17 09:22:09;;;;;;;6.60;2.70;;;7.90;99.90;;;;;;5058528;28;20184;-74
2024/02/17 09:24:35;;;;;;;7.40;2.60;;;7.80;99.90;;;;;;5045470;28;20050;-74
2024/02/17 09:27:04;;;;;;;9.05;3.40;;;7.80;99.90;;;;;;5061961;28;20044;-74
2024/02/17 09:29:35;;;;;;;6.53;2.33;;;7.90;99.90;;;;;;5048943;28;20044;-74
2024/02/17 09:32:01;;;;;;;4.93;2.90;;;7.90;99.90;;;;;;5059643;28;20048;-74
2024/02/17 09:34:29;;;;;;;8.40;2.75;;;7.90;99.90;;;;;;5063513;28;20048;-74
2024/02/17 09:36:56;;;;;;;7.18;2.70;;;8.00;99.90;;;;;;5042910;28;20052;-74
2024/02/17 09:39:24;;;;;;;7.18;2.70;;;8.00;99.90;;;;;;5057483;28;20299;-74
2024/02/17 09:41:49;;;;;;;6.97;3.00;;;8.00;99.90;;;;;;5075063;28;20526;-74
2024/02/17 09:44:15;;;;;;;7.78;2.55;;;8.10;99.90;;;;;;5052763;28;20064;-74
2024/02/17 09:46:42;;;;;;;6.95;2.75;;;8.10;99.90;;;;;;5048789;28;20052;-74
2024/02/17 09:49:08;;;;;;;4.65;2.60;;;8.10;99.90;;;;;;5046015;28;20048;-74
2024/02/17 09:51:36;;;;;;;8.68;2.88;;;8.10;99.90;;;;;;5054943;28;20573;-74
2024/02/17 09:54:03;;;;;;;5.28;2.33;;;8.10;99.90;;;;;;5049128;28;20054;-74
2024/02/17 09:56:29;;;;;;;6.97;2.50;;;8.20;99.90;;;;;;5043751;28;20076;-74
2024/02/17 09:58:55;;;;;;;7.55;2.53;;;8.20;99.90;;;;;;5068873;28;20162;-75
2024/02/17 10:01:20;;;;;;;6.80;2.70;;;8.30;99.90;;;;;;5065061;28;20300;-74
2024/02/17 10:03:47;;;;;;;7.82;2.55;;;8.30;99.90;;;;;;5057510;28;20395;-74
2024/02/17 10:06:14;;;;;;;8.18;2.92;;;8.30;99.90;;;;;;5042658;28;20576;-75
2024/02/17 10:08:41;;;;;;;9.55;3.35;;;8.30;99.90;;;;;;5062077;28;20400;-75
2024/02/17 10:11:10;;;;;;;6.25;2.42;;;8.40;99.90;;;;;;5060830;28;20047;-74
2024/02/17 10:13:37;;;;;;;4.32;2.40;;;8.40;99.90;;;;;;5039719;28;20054;-74
2024/02/17 10:16:14;;;;;;;6.15;2.40;;;8.40;99.90;;;;;;5068710;28;20056;-74
2024/02/17 10:18:47;;;;;;;6.85;2.40;;;8.50;99.90;;;;;;5049339;28;20063;-74
2024/02/17 10:21:13;;;;;;;7.97;2.72;;;8.50;99.90;;;;;;5068891;28;20047;-74
2024/02/17 10:23:39;;;;;;;5.55;2.50;;;8.50;99.90;;;;;;5044607;28;20440;-73
2024/02/17 10:26:06;;;;;;;6.30;2.30;;;8.50;99.90;;;;;;5051050;28;20032;-73
2024/02/17 10:28:32;;;;;;;9.48;2.92;;;8.60;99.90;;;;;;5068119;28;20461;-74
2024/02/17 10:31:01;;;;;;;8.00;2.40;;;8.60;99.90;;;;;;5064047;28;20492;-73
2024/02/17 10:33:27;;;;;;;5.25;2.15;;;8.60;99.90;;;;;;5047603;28;20051;-74
2024/02/17 10:35:56;;;;;;;5.10;2.03;;;8.60;99.90;;;;;;5069068;28;20305;-73
2024/02/17 10:38:24;;;;;;;5.07;2.20;;;8.60;99.90;;;;;;5060961;28;20511;-73
2024/02/17 10:40:51;;;;;;;5.40;2.45;;;8.70;99.90;;;;;;5060293;28;20054;-73
2024/02/17 10:43:18;;;;;;;4.72;2.08;;;8.70;99.90;;;;;;5064604;28;20555;-74
2024/02/17 10:45:44;;;;;;;6.25;2.42;;;8.70;99.90;;;;;;5046854;28;20028;-74
2024/02/17 10:48:10;;;;;;;7.47;2.58;;;8.80;99.90;;;;;;5051067;28;20048;-74
2024/02/17 10:50:44;;;;;;;6.18;2.40;;;9.00;99.90;;;;;;5063011;28;20047;-74
2024/02/17 10:53:16;;;;;;;5.70;2.33;;;9.10;99.90;;;;;;5052309;28;20059;-74
2024/02/17 10:55:44;;;;;;;6.20;2.20;;;9.10;99.90;;;;;;5050620;28;20075;-74
2024/02/17 10:58:16;;;;;;;5.47;2.20;;;9.10;99.90;;;;;;5067761;28;20040;-74
2024/02/17 11:00:46;;;;;;;7.43;2.42;;;9.10;99.90;;;;;;5048576;28;20044;-74
2024/02/17 11:03:19;;;;;;;9.27;2.40;;;9.10;99.90;;;;;;5047627;28;20134;-74
2024/02/17 11:05:48;;;;;;;4.90;2.35;;;9.10;99.90;;;;;;5067235;28;20404;-74
2024/02/17 11:08:15;;;;;;;6.05;2.20;;;9.00;99.90;;;;;;5044263;28;20119;-74
2024/02/17 11:10:43;;;;;;;7.80;2.50;;;9.00;99.90;;;;;;5053128;28;20044;-74
2024/02/17 11:13:25;;;;;;;7.78;2.65;;;9.00;99.90;;;;;;5062295;28;20192;-74
2024/02/17 11:16:05;;;;;;;7.25;2.30;;;9.00;99.90;;;;;;5045471;28;20052;-74
2024/02/17 11:18:34;;;;;;;8.25;2.45;;;8.90;99.90;;;;;;5053666;28;20487;-74
2024/02/17 11:21:02;;;;;;;8.10;2.83;;;8.90;99.90;;;;;;5048576;28;20051;-73
2024/02/17 11:23:39;;;;;;;5.43;2.45;;;8.90;99.90;;;;;;5070049;28;20040;-74
2024/02/17 11:26:18;;;;;;;3.70;2.08;;;8.90;99.90;;;;;;5051360;28;20036;-74
2024/02/17 11:28:46;;;;;;;5.68;2.22;;;8.90;99.90;;;;;;5076710;28;20049;-75
2024/02/17 11:31:16;;;;;;;4.78;2.33;;;9.00;99.90;;;;;;5067496;28;20117;-74
2024/02/17 11:33:42;;;;;;;;;;;9.00;99.90;;;;;;5048812;28;20047;-75
2024/02/17 11:36:10;;;;;;;5.05;2.00;;;9.10;99.90;;;;;;5057464;28;19920;-74
2024/02/17 11:38:37;;;;;;;5.28;2.08;;;9.20;99.90;;;;;;5063226;28;20232;-74
2024/02/17 11:41:03;;;;;;;5.88;2.08;;;9.30;99.90;;;;;;5071015;28;20098;-74
2024/02/17 11:43:36;;;;;;;5.68;2.25;;;9.40;99.90;;;;;;5045634;28;20044;-74
2024/02/17 11:46:03;;;;;;;5.20;2.00;;;9.40;99.90;;;;;;5048164;28;20105;-74
2024/02/17 11:48:30;;;;;;;4.78;2.20;;;9.40;99.90;;;;;;5050776;28;20058;-74
2024/02/17 11:51:06;;;;;;;5.93;2.40;;;9.50;99.90;;;;;;5062737;28;20139;-74
2024/02/17 11:53:32;;;;;;;4.18;2.00;;;9.50;99.90;;;;;;5064142;28;20117;-74
2024/02/17 11:56:00;;;;;;;5.35;2.10;;;9.60;99.90;;;;;;5067050;28;20135;-74
2024/02/17 11:58:26;;;;;;;4.53;2.10;;;9.70;99.90;;;;;;5064739;28;20059;-74
2024/02/17 12:00:56;;;;;;;5.63;2.00;;;9.90;99.90;;;;;;5068900;28;20098;-74
2024/02/17 12:03:26;;;;;;;6.07;2.00;;;10.00;99.90;;;;;;5052095;28;20044;-74
2024/02/17 12:05:52;;;;;;;;;;;10.10;99.90;;;;;;5047247;28;20051;-74
2024/02/17 12:08:18;;;;;;;4.65;2.00;;;10.20;99.90;;;;;;5049465;28;19920;-74
2024/02/17 12:10:46;;;;;;;5.68;2.60;;;10.20;99.90;;;;;;5065190;28;20492;-74
2024/02/17 12:13:11;;;;;;;4.70;2.13;;;10.30;99.90;;;;;;5060359;28;20091;-73
2024/02/17 12:15:37;;;;;;;6.05;1.70;;;10.30;99.90;;;;;;5051270;28;20464;-74
2024/02/17 12:18:04;;;;;;;5.22;1.90;;;10.30;99.90;;;;;;5049661;28;20492;-74
2024/02/17 12:20:34;;;;;;;5.07;1.80;;;10.30;99.90;;;;;;5049045;28;20387;-74
2024/02/17 12:23:00;;;;;;;4.30;1.83;;;10.30;99.90;;;;;;5064556;28;20132;-74
2024/02/17 12:25:26;;;;;;;3.72;1.63;;;10.30;99.90;;;;;;5045633;28;20071;-74
2024/02/17 12:27:53;;;;;;;4.18;1.63;;;10.20;99.90;;;;;;5051136;28;20054;-74
2024/02/17 12:30:19;;;;;;;5.28;2.38;;;10.30;99.90;;;;;;5053841;28;20047;-74
2024/02/17 12:32:45;;;;;;;6.55;2.30;;;10.30;99.90;;;;;;5052297;28;20408;-74
2024/02/17 12:35:17;;;;;;;4.20;2.13;;;10.30;99.90;;;;;;5068698;28;20435;-74
2024/02/17 12:37:48;;;;;;;4.72;1.98;;;10.20;99.90;;;;;;5048229;28;20052;-74
2024/02/17 12:40:16;;;;;;;4.80;1.90;;;10.30;99.90;;;;;;5062003;28;20048;-74
2024/02/17 12:42:43;;;;;;;5.03;2.00;;;10.30;99.90;;;;;;5048033;28;20407;-74
2024/02/17 12:45:30;;;;;;;7.40;2.70;;;10.40;99.90;;;;;;5065238;28;20044;-73
2024/02/17 12:48:05;;;;;;;3.92;2.20;;;10.50;99.90;;;;;;5060750;28;20098;-74